Flight Track Log - Related Links

Times and Time Zones

All times are in EDT time to prevent confusion due to time zone crossing. See the SWA1291 flight status page for this flight to view local times or setup timezone preferences in your user account.

Time Position Orientation Groundspeed Altitude Reporting Facility
EDT Latitude Longitude Course Direction KTS MPH feet Rate Location/Type
Fri 09:29:15 PM 39.1833 -76.7000 247° West 165 190 1,100  Level Potomac TRACON
Fri 09:30:15 PM 39.1667 -76.7500 247° West 192 221 3,300 2,108 Climbing Potomac TRACON
Fri 09:32:20 PM 39.1133 -76.5975 114° Southeast 263 303 7,600 2,283 Climbing Washington Center
Fri 09:33:19 PM 39.1247 -76.4906 82° East 269 310 10,300 1,900 Climbing Washington Center
Fri 09:34:20 PM 39.1339 -76.3675 84° East 304 350 11,400 1,563 Climbing Washington Center
Fri 09:35:18 PM 39.1514 -76.2206 81° East 351 404 13,400 2,218 Climbing Washington Center
Fri 09:36:19 PM 39.1686 -76.0817 81° East 413 475 15,800 2,600 Climbing Washington Center
Fri 09:37:18 PM 39.2275 -75.9481 60° Northeast 429 494 18,600 2,471 Climbing Washington Center
Fri 09:38:18 PM 39.3278 -75.8572 35° Northeast 416 479 20,700 2,016 Climbing Washington Center
Fri 09:39:20 PM 39.4322 -75.7500 38° Northeast 436 502 22,700 1,967 Climbing Washington Center
Fri 09:40:20 PM 39.5386 -75.6428 38° Northeast 468 539 24,700 1,780 Climbing Washington Center
Fri 09:41:18 PM 39.6489 -75.5322 38° Northeast 488 562 26,200 1,613 Climbing Washington Center
Fri 09:42:19 PM 39.7633 -75.4161 38° Northeast 506 582 27,900 1,672 Climbing Washington Center
Fri 09:43:20 PM 39.8758 -75.3022 38° Northeast 511 588 29,600 1,663 Climbing Washington Center
Fri 09:44:00 PM 39.9567 -75.2231 37° Northeast 515 593 30,700 1,515 Climbing New York Center
Fri 09:44:59 PM 40.0694 -75.1000 40° Northeast 515 593 32,100 1,750 Climbing New York Center
Fri 09:46:00 PM 40.1842 -74.9822 38° Northeast 521 600 34,200 1,512 Climbing New York Center
Fri 09:47:02 PM 40.3044 -74.8861 31° Northeast 521 600 35,200 1,008 Climbing New York Center
Fri 09:47:59 PM 40.4397 -74.8286 18° North 502 578 36,200 900 Climbing New York Center
Fri 09:49:02 PM 40.5731 -74.7708 18° North 502 578 37,000 397 Climbing New York Center
Fri 09:50:00 PM 40.7064 -74.7103 19° North 502 578 37,000 -50 Level New York Center
Fri 09:51:01 PM 40.8397 -74.6494 19° North 502 578 36,900 -671 Descending New York Center
Fri 09:52:41 PM 41.0744 -74.5547 17° North 500 575 35,200 -708 Descending Boston Center
Fri 09:53:42 PM 41.2033 -74.4972 19° North 495 570 35,000 -98 Descending Boston Center
Fri 09:54:43 PM 41.3267 -74.4433 18° North 493 567 35,000  Level Boston Center
Fri 09:55:44 PM 41.4525 -74.3878 18° North 493 567 35,000  Level Boston Center
Fri 09:56:45 PM 41.5725 -74.3061 27° Northeast 488 562 35,000 -295 Level Boston Center
Fri 09:57:46 PM 41.6642 -74.1639 49° Northeast 502 578 34,400 -836 Descending Boston Center
Fri 09:58:47 PM 41.7683 -73.9956 50° Northeast 492 566 33,300 -1,721 Descending Boston Center
Fri 09:59:48 PM 41.8428 -73.8736 51° Northeast 479 551 30,900 -2,852 Descending Boston Center
Fri 10:00:49 PM 41.9267 -73.7389 50° Northeast 475 547 27,500 -2,590 Descending Boston Center
Fri 10:02:51 PM 42.0956 -73.4625 59° Northeast 450 518 23,000 -1,475 Descending Boston Center
Fri 10:03:52 PM 42.1664 -73.3447 51° Northeast 452 520 23,000  Level Boston Center
Fri 10:04:53 PM 42.2631 -73.1858 51° Northeast 456 525 23,000 -148 Level Boston Center
Fri 10:05:54 PM 42.3436 -73.0522 51° Northeast 459 528 22,700 -645 Descending Boston Center
Fri 10:06:54 PM 42.4192 -72.9256 51° Northeast 462 532 21,700 -992 Descending Boston Center
Fri 10:07:55 PM 42.4831 -72.7761 60° Northeast 460 529 20,700 -984 Descending Boston Center
Fri 10:08:56 PM 42.5439 -72.6264 61° Northeast 458 527 19,700 -1,672 Descending Boston Center
Fri 10:09:57 PM 42.5994 -72.4872 61° Northeast 437 503 17,300 -2,656 Descending Boston Center
Fri 10:10:58 PM 42.6539 -72.3506 62° Northeast 419 482 14,300 -2,803 Descending Boston Center
Fri 10:11:59 PM 42.7119 -72.1975 63° Northeast 393 452 11,600 -1,672 Descending Boston Center
Fri 10:13:00 PM 42.7208 -72.0542 85° East 384 442 10,900 -744 Descending Boston Center
Fri 10:14:00 PM 42.7278 -71.9289 86° East 336 387 10,100 -1,041 Descending Boston Center
Fri 10:15:01 PM 42.7342 -71.8144 86° East 288 331 8,800 -1,574 Descending Boston Center
Fri 10:16:02 PM 42.7389 -71.7044 87° East 290 334 6,900 -1,869 Descending Boston Center
Fri 10:17:03 PM 42.7653 -71.6036 70° East 282 325 5,000 -1,377 Descending Boston Center
Fri 10:18:04 PM 42.7958 -71.5150 65° Northeast 259 298 4,100 -1,041 Descending Boston Center
Fri 10:19:04 PM 42.8231 -71.4347 65° Northeast 238 274 2,900 -1,240 Descending Boston Center
Fri 10:20:05 PM 42.8606 -71.3867 43° Northeast 197 227 1,600 -984 Descending Boston Center
Fri 10:21:06 PM 42.8953 -71.4117 332° Northwest 142 163 900 -590 Descending Boston Center
Fri 10:22:07 PM 42.9269 -71.4306 336° Northwest 135 155 400 -492 Descending Boston Center
Fri 10:24:00 PM 42.9167 -71.4333 316° Northwest  Level FlightAware Approximate

Login

Don't have an account? Register now (free) for customized features, flight alerts, and more!